Pagrindinis puslapis
METAR-TAF:

METAR-TAF

Oro uostai :

Kodiak, Aliaska, Jungtinės Amerikos Valstijos

platuma: 57-45N, ilguma: 152-30W, Aukštis: 22 m

Dabartinis oras

Ataskaita buvo paskelbta 45 minutes, ne 20:53 UTC
Vėjas 12 kt iš Vakarų
Temperatūra -8°C
Drėgmė 62%
Slėgis 991 hPa
Matomumas: 16.1 km
Su prošvaistėmis ne aukštis 3000 ft
Su prošvaistėmis ne aukštis 5000 ft

METAR: PADQ 272053Z 28012KT 10SM BKN030 BKN050 M08/M14 A2925 RMK AO2 SLP907 T10781139 51006

Laikas: 12:38 (21:38 UTC)

Prognozė

Ataskaita buvo paskelbta 4 valandos ir 9 minutes, ne 17:29 UTC
Prognozė galioja nuo 27 metu 18 UTC su 28 metu 18 UTC
Vėjas 11 kt iš Vakarų/Šiaurės Vakarų
Matomumas: 10 km
Apsiniaukę ne aukštis 2500 ft
Liūtis kaimynystėje
Nuo 28 metu 0000 UTC
Vėjas 10 kt iš Vakarų
Matomumas: 8.0 km
Apsiniaukę ne aukštis 1000 ft
sniegas
Nuo 28 metu 0600 UTC
Vėjas 10 kt iš Vakarų
Matomumas: 10 km
Apsiniaukę ne aukštis 1000 ft

TAF: PADQ 271729Z 2718/2818 30011KT P6SM VCSH OVC025 FM280000 28010KT 5SM -SHSN OVC010 FM280600 26010KT P6SM OVC010

Orai ataskaitas ir orų prognozės (METAR, TAF).

turimą stotys yra geltonos ir raudonos taškus žemėlapyje.

Perkelti pele per norėdami pamatyti stoties vardą.

Tada spustelėkite, norėdami matyti oro stebėjimo ir prognozės.

Norėdami pakeisti žemėlapį: spustelėkite ant žalios mygtukų su juodo kryžiaus žemyn,; žalią mygtuką su brūkšneliu, jei norite nutolinti; arba žalių rodyklių gretimoms žemėlapius.


METAR-TAF: